sensor_id;sensor_type;location;lat;lon;timestamp;P1;durP1;ratioP1;P2;durP2;ratioP2
61642;SDS011;47551;52.506;4.678;2023-12-20T00:00:10;14.30;;;3.00;;
61642;SDS011;47551;52.506;4.678;2023-12-20T00:00:31;14.02;;;2.67;;
61642;SDS011;47551;52.506;4.678;2023-12-20T00:00:51;14.47;;;2.80;;
61642;SDS011;47551;52.506;4.678;2023-12-20T00:01:11;13.00;;;3.13;;
61642;SDS011;47551;52.506;4.678;2023-12-20T00:01:31;14.48;;;3.22;;
61642;SDS011;47551;52.506;4.678;2023-12-20T00:01:51;16.93;;;3.33;;
61642;SDS011;47551;52.506;4.678;2023-12-20T00:02:12;14.60;;;3.03;;
61642;SDS011;47551;52.506;4.678;2023-12-20T00:02:35;15.73;;;3.08;;
61642;SDS011;47551;52.506;4.678;2023-12-20T00:02:55;13.13;;;3.03;;
61642;SDS011;47551;52.506;4.678;2023-12-20T00:03:15;12.37;;;2.67;;
61642;SDS011;47551;52.506;4.678;2023-12-20T00:03:35;12.83;;;2.73;;
61642;SDS011;47551;52.506;4.678;2023-12-20T00:03:56;12.73;;;2.90;;
61642;SDS011;47551;52.506;4.678;2023-12-20T00:04:16;11.95;;;2.80;;
61642;SDS011;47551;52.506;4.678;2023-12-20T00:04:36;14.43;;;3.00;;
61642;SDS011;47551;52.506;4.678;2023-12-20T00:04:56;13.77;;;2.93;;
61642;SDS011;47551;52.506;4.678;2023-12-20T00:05:16;14.80;;;3.10;;
61642;SDS011;47551;52.506;4.678;2023-12-20T00:05:39;15.18;;;3.00;;
61642;SDS011;47551;52.506;4.678;2023-12-20T00:06:01;14.52;;;3.20;;
61642;SDS011;47551;52.506;4.678;2023-12-20T00:06:21;14.80;;;3.20;;
61642;SDS011;47551;52.506;4.678;2023-12-20T00:06:41;13.00;;;3.07;;
61642;SDS011;47551;52.506;4.678;2023-12-20T00:07:01;13.03;;;2.93;;
61642;SDS011;47551;52.506;4.678;2023-12-20T00:07:22;14.07;;;3.17;;
61642;SDS011;47551;52.506;4.678;2023-12-20T00:07:42;12.70;;;2.80;;
61642;SDS011;47551;52.506;4.678;2023-12-20T00:08:02;13.20;;;3.03;;
61642;SDS011;47551;52.506;4.678;2023-12-20T00:08:25;14.40;;;3.05;;
61642;SDS011;47551;52.506;4.678;2023-12-20T00:08:45;15.73;;;3.07;;
61642;SDS011;47551;52.506;4.678;2023-12-20T00:09:05;15.95;;;3.30;;
61642;SDS011;47551;52.506;4.678;2023-12-20T00:09:26;14.50;;;3.23;;
61642;SDS011;47551;52.506;4.678;2023-12-20T00:09:46;15.03;;;2.83;;
61642;SDS011;47551;52.506;4.678;2023-12-20T00:10:06;14.48;;;2.72;;
61642;SDS011;47551;52.506;4.678;2023-12-20T00:10:27;14.98;;;3.20;;
61642;SDS011;47551;52.506;4.678;2023-12-20T00:10:47;16.70;;;3.40;;
61642;SDS011;47551;52.506;4.678;2023-12-20T00:11:07;16.67;;;3.40;;
61642;SDS011;47551;52.506;4.678;2023-12-20T00:11:27;12.97;;;3.53;;
61642;SDS011;47551;52.506;4.678;2023-12-20T00:11:48;16.83;;;3.70;;
61642;SDS011;47551;52.506;4.678;2023-12-20T00:12:08;16.13;;;3.50;;
61642;SDS011;47551;52.506;4.678;2023-12-20T00:12:28;14.82;;;3.20;;
61642;SDS011;47551;52.506;4.678;2023-12-20T00:12:49;13.20;;;3.27;;
61642;SDS011;47551;52.506;4.678;2023-12-20T00:13:09;15.57;;;3.10;;
61642;SDS011;47551;52.506;4.678;2023-12-20T00:13:29;16.40;;;3.30;;
61642;SDS011;47551;52.506;4.678;2023-12-20T00:13:49;15.07;;;3.10;;
61642;SDS011;47551;52.506;4.678;2023-12-20T00:14:10;14.70;;;2.87;;
61642;SDS011;47551;52.506;4.678;2023-12-20T00:14:30;14.37;;;3.20;;
61642;SDS011;47551;52.506;4.678;2023-12-20T00:14:50;13.32;;;2.95;;
61642;SDS011;47551;52.506;4.678;2023-12-20T00:15:10;13.53;;;3.10;;
61642;SDS011;47551;52.506;4.678;2023-12-20T00:15:30;15.77;;;3.50;;
61642;SDS011;47551;52.506;4.678;2023-12-20T00:15:51;14.30;;;3.30;;
61642;SDS011;47551;52.506;4.678;2023-12-20T00:16:11;14.70;;;3.37;;
61642;SDS011;47551;52.506;4.678;2023-12-20T00:16:31;13.97;;;3.10;;
61642;SDS011;47551;52.506;4.678;2023-12-20T00:16:53;13.93;;;3.00;;
61642;SDS011;47551;52.506;4.678;2023-12-20T00:17:14;14.33;;;2.87;;
61642;SDS011;47551;52.506;4.678;2023-12-20T00:17:34;14.85;;;3.40;;
61642;SDS011;47551;52.506;4.678;2023-12-20T00:17:54;14.90;;;3.40;;
61642;SDS011;47551;52.506;4.678;2023-12-20T00:18:15;15.32;;;3.10;;
61642;SDS011;47551;52.506;4.678;2023-12-20T00:18:35;17.77;;;3.30;;
61642;SDS011;47551;52.506;4.678;2023-12-20T00:18:55;16.37;;;3.30;;
61642;SDS011;47551;52.506;4.678;2023-12-20T00:19:15;14.85;;;3.35;;
61642;SDS011;47551;52.506;4.678;2023-12-20T00:19:35;13.20;;;3.50;;
61642;SDS011;47551;52.506;4.678;2023-12-20T00:19:56;13.87;;;3.40;;
61642;SDS011;47551;52.506;4.678;2023-12-20T00:20:16;16.23;;;3.60;;
61642;SDS011;47551;52.506;4.678;2023-12-20T00:20:36;16.53;;;3.77;;
61642;SDS011;47551;52.506;4.678;2023-12-20T00:20:56;17.58;;;3.60;;
61642;SDS011;47551;52.506;4.678;2023-12-20T00:21:37;15.70;;;3.05;;
61642;SDS011;47551;52.506;4.678;2023-12-20T00:21:57;16.50;;;3.43;;
61642;SDS011;47551;52.506;4.678;2023-12-20T00:22:17;13.80;;;3.35;;
61642;SDS011;47551;52.506;4.678;2023-12-20T00:22:37;13.47;;;3.10;;
61642;SDS011;47551;52.506;4.678;2023-12-20T00:22:57;15.60;;;3.17;;
61642;SDS011;47551;52.506;4.678;2023-12-20T00:23:20;18.80;;;3.67;;
61642;SDS011;47551;52.506;4.678;2023-12-20T00:23:43;15.57;;;3.25;;
61642;SDS011;47551;52.506;4.678;2023-12-20T00:24:03;15.83;;;3.60;;
61642;SDS011;47551;52.506;4.678;2023-12-20T00:24:23;14.17;;;3.53;;
61642;SDS011;47551;52.506;4.678;2023-12-20T00:24:43;16.27;;;3.77;;
61642;SDS011;47551;52.506;4.678;2023-12-20T00:25:04;15.13;;;3.55;;
61642;SDS011;47551;52.506;4.678;2023-12-20T00:25:24;15.57;;;3.50;;
61642;SDS011;47551;52.506;4.678;2023-12-20T00:25:44;13.50;;;3.50;;
61642;SDS011;47551;52.506;4.678;2023-12-20T00:26:07;16.00;;;3.85;;
61642;SDS011;47551;52.506;4.678;2023-12-20T00:26:27;16.23;;;3.57;;
61642;SDS011;47551;52.506;4.678;2023-12-20T00:26:48;15.63;;;3.50;;
61642;SDS011;47551;52.506;4.678;2023-12-20T00:27:08;15.50;;;3.40;;
61642;SDS011;47551;52.506;4.678;2023-12-20T00:27:28;13.83;;;3.40;;
61642;SDS011;47551;52.506;4.678;2023-12-20T00:27:48;14.63;;;3.10;;
61642;SDS011;47551;52.506;4.678;2023-12-20T00:28:08;13.20;;;3.20;;
61642;SDS011;47551;52.506;4.678;2023-12-20T00:28:29;14.30;;;3.50;;
61642;SDS011;47551;52.506;4.678;2023-12-20T00:28:49;14.23;;;3.33;;
61642;SDS011;47551;52.506;4.678;2023-12-20T00:29:09;17.20;;;3.80;;
61642;SDS011;47551;52.506;4.678;2023-12-20T00:29:29;16.10;;;3.77;;
61642;SDS011;47551;52.506;4.678;2023-12-20T00:29:52;15.95;;;4.00;;
61642;SDS011;47551;52.506;4.678;2023-12-20T00:30:12;15.77;;;3.83;;
61642;SDS011;47551;52.506;4.678;2023-12-20T00:30:32;16.17;;;3.63;;
61642;SDS011;47551;52.506;4.678;2023-12-20T00:30:52;16.13;;;3.13;;
61642;SDS011;47551;52.506;4.678;2023-12-20T00:31:13;15.40;;;3.23;;
61642;SDS011;47551;52.506;4.678;2023-12-20T00:31:34;14.25;;;3.28;;
61642;SDS011;47551;52.506;4.678;2023-12-20T00:31:54;14.75;;;3.45;;
61642;SDS011;47551;52.506;4.678;2023-12-20T00:32:14;15.07;;;3.30;;
61642;SDS011;47551;52.506;4.678;2023-12-20T00:32:35;14.33;;;3.37;;
61642;SDS011;47551;52.506;4.678;2023-12-20T00:32:55;16.80;;;3.83;;
61642;SDS011;47551;52.506;4.678;2023-12-20T00:33:15;20.53;;;3.60;;
61642;SDS011;47551;52.506;4.678;2023-12-20T00:33:36;19.40;;;3.70;;
61642;SDS011;47551;52.506;4.678;2023-12-20T00:33:56;20.17;;;3.63;;
61642;SDS011;47551;52.506;4.678;2023-12-20T00:34:16;18.17;;;3.60;;
61642;SDS011;47551;52.506;4.678;2023-12-20T00:34:36;14.57;;;3.10;;
61642;SDS011;47551;52.506;4.678;2023-12-20T00:34:59;14.73;;;3.90;;
61642;SDS011;47551;52.506;4.678;2023-12-20T00:35:19;16.70;;;3.77;;
61642;SDS011;47551;52.506;4.678;2023-12-20T00:35:39;13.87;;;3.43;;
61642;SDS011;47551;52.506;4.678;2023-12-20T00:36:00;12.57;;;3.30;;
61642;SDS011;47551;52.506;4.678;2023-12-20T00:36:22;14.60;;;3.70;;
61642;SDS011;47551;52.506;4.678;2023-12-20T00:36:43;15.30;;;3.60;;
61642;SDS011;47551;52.506;4.678;2023-12-20T00:37:03;14.67;;;3.33;;
61642;SDS011;47551;52.506;4.678;2023-12-20T00:37:23;12.73;;;3.57;;
61642;SDS011;47551;52.506;4.678;2023-12-20T00:37:44;12.70;;;3.87;;
61642;SDS011;47551;52.506;4.678;2023-12-20T00:38:04;13.30;;;3.40;;
61642;SDS011;47551;52.506;4.678;2023-12-20T00:38:25;13.75;;;3.78;;
61642;SDS011;47551;52.506;4.678;2023-12-20T00:38:45;15.30;;;3.47;;
61642;SDS011;47551;52.506;4.678;2023-12-20T00:39:05;16.60;;;3.80;;
61642;SDS011;47551;52.506;4.678;2023-12-20T00:39:26;19.88;;;4.03;;
61642;SDS011;47551;52.506;4.678;2023-12-20T00:39:47;15.13;;;3.43;;
61642;SDS011;47551;52.506;4.678;2023-12-20T00:40:07;14.32;;;3.30;;
61642;SDS011;47551;52.506;4.678;2023-12-20T00:40:28;16.00;;;3.23;;
61642;SDS011;47551;52.506;4.678;2023-12-20T00:40:48;16.23;;;3.70;;
61642;SDS011;47551;52.506;4.678;2023-12-20T00:41:09;15.30;;;4.07;;
61642;SDS011;47551;52.506;4.678;2023-12-20T00:41:29;16.73;;;4.37;;
61642;SDS011;47551;52.506;4.678;2023-12-20T00:41:49;18.92;;;4.50;;
61642;SDS011;47551;52.506;4.678;2023-12-20T00:42:10;14.63;;;3.67;;
61642;SDS011;47551;52.506;4.678;2023-12-20T00:42:30;13.53;;;3.20;;
61642;SDS011;47551;52.506;4.678;2023-12-20T00:42:50;16.13;;;3.63;;
61642;SDS011;47551;52.506;4.678;2023-12-20T00:43:10;16.93;;;3.83;;
61642;SDS011;47551;52.506;4.678;2023-12-20T00:43:30;14.80;;;3.33;;
61642;SDS011;47551;52.506;4.678;2023-12-20T00:43:51;16.53;;;3.43;;
61642;SDS011;47551;52.506;4.678;2023-12-20T00:44:11;14.20;;;3.23;;
61642;SDS011;47551;52.506;4.678;2023-12-20T00:44:34;13.95;;;3.88;;
61642;SDS011;47551;52.506;4.678;2023-12-20T00:44:54;17.43;;;3.97;;
61642;SDS011;47551;52.506;4.678;2023-12-20T00:45:14;15.47;;;3.37;;
61642;SDS011;47551;52.506;4.678;2023-12-20T00:45:35;15.80;;;3.57;;
61642;SDS011;47551;52.506;4.678;2023-12-20T00:45:55;15.77;;;4.00;;
61642;SDS011;47551;52.506;4.678;2023-12-20T00:46:15;14.17;;;3.80;;
61642;SDS011;47551;52.506;4.678;2023-12-20T00:46:35;16.30;;;4.30;;
61642;SDS011;47551;52.506;4.678;2023-12-20T00:46:56;16.25;;;4.10;;
61642;SDS011;47551;52.506;4.678;2023-12-20T00:47:16;14.57;;;3.40;;
61642;SDS011;47551;52.506;4.678;2023-12-20T00:47:36;15.53;;;3.70;;
61642;SDS011;47551;52.506;4.678;2023-12-20T00:47:56;16.37;;;3.60;;
61642;SDS011;47551;52.506;4.678;2023-12-20T00:48:16;14.53;;;3.70;;
61642;SDS011;47551;52.506;4.678;2023-12-20T00:48:36;13.32;;;4.00;;
61642;SDS011;47551;52.506;4.678;2023-12-20T00:48:57;14.80;;;4.10;;
61642;SDS011;47551;52.506;4.678;2023-12-20T00:49:17;15.63;;;3.97;;
61642;SDS011;47551;52.506;4.678;2023-12-20T00:49:37;15.53;;;3.97;;
61642;SDS011;47551;52.506;4.678;2023-12-20T00:50:00;17.77;;;4.55;;
61642;SDS011;47551;52.506;4.678;2023-12-20T00:50:23;15.55;;;4.15;;
61642;SDS011;47551;52.506;4.678;2023-12-20T00:50:43;13.90;;;3.40;;
61642;SDS011;47551;52.506;4.678;2023-12-20T00:51:03;14.27;;;3.53;;
61642;SDS011;47551;52.506;4.678;2023-12-20T00:51:24;14.20;;;3.47;;
61642;SDS011;47551;52.506;4.678;2023-12-20T00:51:44;17.45;;;3.88;;
61642;SDS011;47551;52.506;4.678;2023-12-20T00:52:04;18.37;;;3.83;;
61642;SDS011;47551;52.506;4.678;2023-12-20T00:52:24;14.37;;;3.80;;
61642;SDS011;47551;52.506;4.678;2023-12-20T00:52:45;14.95;;;3.70;;
61642;SDS011;47551;52.506;4.678;2023-12-20T00:53:08;16.25;;;3.85;;
61642;SDS011;47551;52.506;4.678;2023-12-20T00:53:28;15.80;;;4.57;;
61642;SDS011;47551;52.506;4.678;2023-12-20T00:53:49;16.80;;;4.47;;
61642;SDS011;47551;52.506;4.678;2023-12-20T00:54:10;17.30;;;3.55;;
61642;SDS011;47551;52.506;4.678;2023-12-20T00:54:30;15.17;;;3.67;;
61642;SDS011;47551;52.506;4.678;2023-12-20T00:54:51;16.55;;;3.63;;
61642;SDS011;47551;52.506;4.678;2023-12-20T00:55:11;12.45;;;3.63;;
61642;SDS011;47551;52.506;4.678;2023-12-20T00:55:31;15.77;;;4.10;;
61642;SDS011;47551;52.506;4.678;2023-12-20T00:55:54;17.02;;;3.90;;
61642;SDS011;47551;52.506;4.678;2023-12-20T00:56:15;15.37;;;3.63;;
61642;SDS011;47551;52.506;4.678;2023-12-20T00:56:38;16.02;;;3.70;;
61642;SDS011;47551;52.506;4.678;2023-12-20T00:56:58;15.10;;;3.33;;
61642;SDS011;47551;52.506;4.678;2023-12-20T00:57:24;17.05;;;3.88;;
61642;SDS011;47551;52.506;4.678;2023-12-20T00:57:47;15.25;;;3.88;;
61642;SDS011;47551;52.506;4.678;2023-12-20T00:58:07;16.00;;;3.93;;
61642;SDS011;47551;52.506;4.678;2023-12-20T00:58:27;16.00;;;3.70;;
61642;SDS011;47551;52.506;4.678;2023-12-20T00:58:47;15.00;;;4.00;;
61642;SDS011;47551;52.506;4.678;2023-12-20T00:59:08;17.43;;;3.70;;
61642;SDS011;47551;52.506;4.678;2023-12-20T00:59:28;17.70;;;3.57;;
61642;SDS011;47551;52.506;4.678;2023-12-20T00:59:48;14.97;;;3.60;;
61642;SDS011;47551;52.506;4.678;2023-12-20T01:00:08;13.20;;;3.93;;
61642;SDS011;47551;52.506;4.678;2023-12-20T01:00:33;13.90;;;3.60;;
61642;SDS011;47551;52.506;4.678;2023-12-20T01:00:53;15.30;;;3.43;;
61642;SDS011;47551;52.506;4.678;2023-12-20T01:01:13;17.42;;;4.00;;
61642;SDS011;47551;52.506;4.678;2023-12-20T01:01:33;16.33;;;3.70;;
61642;SDS011;47551;52.506;4.678;2023-12-20T01:01:54;17.03;;;3.90;;
61642;SDS011;47551;52.506;4.678;2023-12-20T01:02:14;15.07;;;3.85;;
61642;SDS011;47551;52.506;4.678;2023-12-20T01:02:34;18.07;;;3.70;;
61642;SDS011;47551;52.506;4.678;2023-12-20T01:02:54;17.40;;;3.83;;
61642;SDS011;47551;52.506;4.678;2023-12-20T01:03:14;17.50;;;3.80;;
61642;SDS011;47551;52.506;4.678;2023-12-20T01:03:35;17.27;;;4.03;;
61642;SDS011;47551;52.506;4.678;2023-12-20T01:03:56;18.65;;;4.18;;
61642;SDS011;47551;52.506;4.678;2023-12-20T01:04:16;15.93;;;4.10;;
61642;SDS011;47551;52.506;4.678;2023-12-20T01:04:36;15.47;;;3.90;;
61642;SDS011;47551;52.506;4.678;2023-12-20T01:04:56;17.10;;;3.47;;
61642;SDS011;47551;52.506;4.678;2023-12-20T01:05:17;13.97;;;3.47;;
61642;SDS011;47551;52.506;4.678;2023-12-20T01:05:37;16.63;;;4.18;;
61642;SDS011;47551;52.506;4.678;2023-12-20T01:05:58;18.27;;;4.20;;
61642;SDS011;47551;52.506;4.678;2023-12-20T01:06:21;16.40;;;4.10;;
61642;SDS011;47551;52.506;4.678;2023-12-20T01:06:41;14.38;;;3.60;;
61642;SDS011;47551;52.506;4.678;2023-12-20T01:07:01;16.03;;;3.50;;
61642;SDS011;47551;52.506;4.678;2023-12-20T01:07:22;16.98;;;3.50;;
61642;SDS011;47551;52.506;4.678;2023-12-20T01:07:42;16.30;;;3.70;;
61642;SDS011;47551;52.506;4.678;2023-12-20T01:08:02;15.70;;;3.90;;
61642;SDS011;47551;52.506;4.678;2023-12-20T01:08:26;16.13;;;4.00;;
61642;SDS011;47551;52.506;4.678;2023-12-20T01:08:46;15.85;;;3.80;;
61642;SDS011;47551;52.506;4.678;2023-12-20T01:09:06;15.70;;;4.07;;
61642;SDS011;47551;52.506;4.678;2023-12-20T01:09:26;13.40;;;3.60;;
61642;SDS011;47551;52.506;4.678;2023-12-20T01:09:47;13.57;;;3.17;;
61642;SDS011;47551;52.506;4.678;2023-12-20T01:10:10;14.73;;;3.40;;
61642;SDS011;47551;52.506;4.678;2023-12-20T01:10:30;15.50;;;3.63;;
61642;SDS011;47551;52.506;4.678;2023-12-20T01:10:50;16.80;;;3.73;;
61642;SDS011;47551;52.506;4.678;2023-12-20T01:11:10;15.20;;;3.33;;
61642;SDS011;47551;52.506;4.678;2023-12-20T01:11:31;17.43;;;3.53;;
61642;SDS011;47551;52.506;4.678;2023-12-20T01:11:51;15.50;;;3.53;;
61642;SDS011;47551;52.506;4.678;2023-12-20T01:12:11;13.30;;;3.77;;
61642;SDS011;47551;52.506;4.678;2023-12-20T01:12:31;15.50;;;3.50;;
61642;SDS011;47551;52.506;4.678;2023-12-20T01:12:51;16.67;;;4.03;;
61642;SDS011;47551;52.506;4.678;2023-12-20T01:13:11;16.07;;;4.00;;
61642;SDS011;47551;52.506;4.678;2023-12-20T01:13:32;15.63;;;3.50;;
61642;SDS011;47551;52.506;4.678;2023-12-20T01:13:52;16.27;;;3.47;;
61642;SDS011;47551;52.506;4.678;2023-12-20T01:14:12;15.00;;;3.60;;
61642;SDS011;47551;52.506;4.678;2023-12-20T01:14:35;17.98;;;4.25;;
61642;SDS011;47551;52.506;4.678;2023-12-20T01:14:55;16.77;;;4.03;;
61642;SDS011;47551;52.506;4.678;2023-12-20T01:15:15;18.40;;;4.00;;
61642;SDS011;47551;52.506;4.678;2023-12-20T01:15:35;17.13;;;3.93;;
61642;SDS011;47551;52.506;4.678;2023-12-20T01:15:58;15.87;;;3.70;;
61642;SDS011;47551;52.506;4.678;2023-12-20T01:16:19;15.57;;;3.85;;
61642;SDS011;47551;52.506;4.678;2023-12-20T01:16:39;17.27;;;3.97;;
61642;SDS011;47551;52.506;4.678;2023-12-20T01:16:59;12.93;;;3.23;;
61642;SDS011;47551;52.506;4.678;2023-12-20T01:17:19;14.47;;;3.60;;
61642;SDS011;47551;52.506;4.678;2023-12-20T01:17:39;17.23;;;3.60;;
61642;SDS011;47551;52.506;4.678;2023-12-20T01:18:00;15.07;;;3.53;;
61642;SDS011;47551;52.506;4.678;2023-12-20T01:18:20;16.80;;;3.80;;
61642;SDS011;47551;52.506;4.678;2023-12-20T01:18:40;16.17;;;3.60;;
61642;SDS011;47551;52.506;4.678;2023-12-20T01:19:00;13.60;;;3.30;;
61642;SDS011;47551;52.506;4.678;2023-12-20T01:19:21;14.13;;;3.33;;
61642;SDS011;47551;52.506;4.678;2023-12-20T01:19:41;16.55;;;3.58;;
61642;SDS011;47551;52.506;4.678;2023-12-20T01:20:01;15.57;;;4.17;;
61642;SDS011;47551;52.506;4.678;2023-12-20T01:20:24;16.37;;;4.30;;
61642;SDS011;47551;52.506;4.678;2023-12-20T01:20:44;18.90;;;3.75;;
61642;SDS011;47551;52.506;4.678;2023-12-20T01:21:04;19.30;;;4.10;;
61642;SDS011;47551;52.506;4.678;2023-12-20T01:21:24;17.57;;;4.07;;
61642;SDS011;47551;52.506;4.678;2023-12-20T01:21:45;16.58;;;3.97;;
61642;SDS011;47551;52.506;4.678;2023-12-20T01:22:05;16.23;;;3.80;;
61642;SDS011;47551;52.506;4.678;2023-12-20T01:22:25;13.97;;;3.57;;
61642;SDS011;47551;52.506;4.678;2023-12-20T01:22:46;14.33;;;3.33;;
61642;SDS011;47551;52.506;4.678;2023-12-20T01:23:06;17.20;;;4.00;;
61642;SDS011;47551;52.506;4.678;2023-12-20T01:23:26;19.00;;;4.20;;
61642;SDS011;47551;52.506;4.678;2023-12-20T01:23:46;16.10;;;3.60;;
61642;SDS011;47551;52.506;4.678;2023-12-20T01:24:06;17.63;;;3.95;;
61642;SDS011;47551;52.506;4.678;2023-12-20T01:24:29;20.38;;;3.88;;
61642;SDS011;47551;52.506;4.678;2023-12-20T01:24:49;16.33;;;3.77;;
61642;SDS011;47551;52.506;4.678;2023-12-20T01:25:16;17.85;;;4.13;;
61642;SDS011;47551;52.506;4.678;2023-12-20T01:25:36;19.15;;;3.90;;
61642;SDS011;47551;52.506;4.678;2023-12-20T01:25:56;19.50;;;3.97;;
61642;SDS011;47551;52.506;4.678;2023-12-20T01:26:16;17.97;;;3.90;;
61642;SDS011;47551;52.506;4.678;2023-12-20T01:26:37;17.33;;;4.03;;
61642;SDS011;47551;52.506;4.678;2023-12-20T01:26:57;17.10;;;4.00;;
61642;SDS011;47551;52.506;4.678;2023-12-20T01:27:17;16.57;;;4.30;;
61642;SDS011;47551;52.506;4.678;2023-12-20T01:27:37;17.67;;;4.20;;
61642;SDS011;47551;52.506;4.678;2023-12-20T01:27:58;20.40;;;4.40;;
61642;SDS011;47551;52.506;4.678;2023-12-20T01:28:18;20.53;;;4.10;;
61642;SDS011;47551;52.506;4.678;2023-12-20T01:28:38;19.93;;;4.23;;
61642;SDS011;47551;52.506;4.678;2023-12-20T01:28:58;17.80;;;4.33;;
61642;SDS011;47551;52.506;4.678;2023-12-20T01:29:18;18.15;;;4.43;;
61642;SDS011;47551;52.506;4.678;2023-12-20T01:29:39;17.83;;;3.83;;
61642;SDS011;47551;52.506;4.678;2023-12-20T01:29:59;16.63;;;3.83;;
61642;SDS011;47551;52.506;4.678;2023-12-20T01:30:19;18.93;;;4.10;;
61642;SDS011;47551;52.506;4.678;2023-12-20T01:30:39;17.03;;;4.17;;
61642;SDS011;47551;52.506;4.678;2023-12-20T01:31:00;13.17;;;3.57;;
61642;SDS011;47551;52.506;4.678;2023-12-20T01:31:20;16.90;;;3.53;;
61642;SDS011;47551;52.506;4.678;2023-12-20T01:31:40;15.20;;;3.63;;
61642;SDS011;47551;52.506;4.678;2023-12-20T01:32:03;14.48;;;3.78;;
61642;SDS011;47551;52.506;4.678;2023-12-20T01:32:23;14.27;;;3.87;;
61642;SDS011;47551;52.506;4.678;2023-12-20T01:32:43;17.77;;;4.07;;
61642;SDS011;47551;52.506;4.678;2023-12-20T01:33:04;16.10;;;4.03;;
61642;SDS011;47551;52.506;4.678;2023-12-20T01:33:24;17.03;;;4.13;;
61642;SDS011;47551;52.506;4.678;2023-12-20T01:33:44;18.47;;;3.90;;
61642;SDS011;47551;52.506;4.678;2023-12-20T01:34:04;17.05;;;4.18;;
61642;SDS011;47551;52.506;4.678;2023-12-20T01:34:25;13.77;;;3.60;;
61642;SDS011;47551;52.506;4.678;2023-12-20T01:34:45;14.50;;;3.60;;
61642;SDS011;47551;52.506;4.678;2023-12-20T01:35:05;16.93;;;3.40;;
61642;SDS011;47551;52.506;4.678;2023-12-20T01:35:25;17.02;;;3.88;;
61642;SDS011;47551;52.506;4.678;2023-12-20T01:35:45;17.20;;;4.00;;
61642;SDS011;47551;52.506;4.678;2023-12-20T01:36:06;16.07;;;4.10;;
61642;SDS011;47551;52.506;4.678;2023-12-20T01:36:26;18.07;;;4.13;;
61642;SDS011;47551;52.506;4.678;2023-12-20T01:36:46;16.02;;;3.72;;
61642;SDS011;47551;52.506;4.678;2023-12-20T01:37:07;16.73;;;4.20;;
61642;SDS011;47551;52.506;4.678;2023-12-20T01:37:27;14.43;;;4.33;;
61642;SDS011;47551;52.506;4.678;2023-12-20T01:37:49;14.43;;;3.58;;
61642;SDS011;47551;52.506;4.678;2023-12-20T01:38:09;16.67;;;3.93;;
61642;SDS011;47551;52.506;4.678;2023-12-20T01:38:29;15.33;;;3.47;;
61642;SDS011;47551;52.506;4.678;2023-12-20T01:38:49;15.00;;;3.70;;
61642;SDS011;47551;52.506;4.678;2023-12-20T01:39:09;16.53;;;4.17;;
61642;SDS011;47551;52.506;4.678;2023-12-20T01:39:30;14.52;;;3.80;;
61642;SDS011;47551;52.506;4.678;2023-12-20T01:39:50;15.30;;;3.77;;
61642;SDS011;47551;52.506;4.678;2023-12-20T01:40:10;18.20;;;3.83;;
61642;SDS011;47551;52.506;4.678;2023-12-20T01:40:33;19.67;;;4.10;;
61642;SDS011;47551;52.506;4.678;2023-12-20T01:40:53;16.85;;;3.75;;
61642;SDS011;47551;52.506;4.678;2023-12-20T01:41:14;19.47;;;4.07;;
61642;SDS011;47551;52.506;4.678;2023-12-20T01:41:34;16.47;;;3.93;;
61642;SDS011;47551;52.506;4.678;2023-12-20T01:41:54;12.63;;;3.33;;
61642;SDS011;47551;52.506;4.678;2023-12-20T01:42:14;14.15;;;4.05;;
61642;SDS011;47551;52.506;4.678;2023-12-20T01:42:34;12.57;;;3.63;;
61642;SDS011;47551;52.506;4.678;2023-12-20T01:42:58;15.43;;;3.73;;
61642;SDS011;47551;52.506;4.678;2023-12-20T01:43:19;18.38;;;3.47;;
61642;SDS011;47551;52.506;4.678;2023-12-20T01:43:42;19.55;;;3.80;;
61642;SDS011;47551;52.506;4.678;2023-12-20T01:44:02;15.13;;;3.60;;
61642;SDS011;47551;52.506;4.678;2023-12-20T01:44:22;16.20;;;3.97;;
61642;SDS011;47551;52.506;4.678;2023-12-20T01:44:42;17.63;;;4.10;;
61642;SDS011;47551;52.506;4.678;2023-12-20T01:45:02;15.87;;;3.57;;
61642;SDS011;47551;52.506;4.678;2023-12-20T01:45:23;16.55;;;3.55;;
61642;SDS011;47551;52.506;4.678;2023-12-20T01:45:43;19.37;;;4.00;;
61642;SDS011;47551;52.506;4.678;2023-12-20T01:46:03;16.33;;;3.90;;
61642;SDS011;47551;52.506;4.678;2023-12-20T01:46:24;15.88;;;3.60;;
61642;SDS011;47551;52.506;4.678;2023-12-20T01:46:44;19.23;;;3.77;;
61642;SDS011;47551;52.506;4.678;2023-12-20T01:47:05;16.77;;;3.88;;
61642;SDS011;47551;52.506;4.678;2023-12-20T01:47:25;16.93;;;3.83;;
61642;SDS011;47551;52.506;4.678;2023-12-20T01:47:47;20.08;;;4.10;;
61642;SDS011;47551;52.506;4.678;2023-12-20T01:48:07;19.10;;;3.90;;
61642;SDS011;47551;52.506;4.678;2023-12-20T01:48:28;20.33;;;4.65;;
61642;SDS011;47551;52.506;4.678;2023-12-20T01:48:49;20.48;;;4.30;;
61642;SDS011;47551;52.506;4.678;2023-12-20T01:49:09;16.17;;;3.60;;
61642;SDS011;47551;52.506;4.678;2023-12-20T01:49:29;16.27;;;3.47;;
61642;SDS011;47551;52.506;4.678;2023-12-20T01:49:50;16.40;;;3.88;;
61642;SDS011;47551;52.506;4.678;2023-12-20T01:50:10;15.33;;;3.70;;
61642;SDS011;47551;52.506;4.678;2023-12-20T01:50:31;16.07;;;3.77;;
61642;SDS011;47551;52.506;4.678;2023-12-20T01:50:51;15.75;;;4.00;;
61642;SDS011;47551;52.506;4.678;2023-12-20T01:51:12;17.98;;;4.40;;
61642;SDS011;47551;52.506;4.678;2023-12-20T01:51:32;15.47;;;4.03;;
61642;SDS011;47551;52.506;4.678;2023-12-20T01:51:53;15.32;;;3.55;;
61642;SDS011;47551;52.506;4.678;2023-12-20T01:52:13;16.17;;;3.70;;
61642;SDS011;47551;52.506;4.678;2023-12-20T01:52:33;16.65;;;3.90;;
61642;SDS011;47551;52.506;4.678;2023-12-20T01:52:54;16.23;;;3.57;;
61642;SDS011;47551;52.506;4.678;2023-12-20T01:53:18;15.95;;;3.65;;
61642;SDS011;47551;52.506;4.678;2023-12-20T01:53:39;13.75;;;3.72;;
61642;SDS011;47551;52.506;4.678;2023-12-20T01:54:00;17.38;;;3.65;;
61642;SDS011;47551;52.506;4.678;2023-12-20T01:54:20;17.23;;;3.60;;
61642;SDS011;47551;52.506;4.678;2023-12-20T01:54:41;17.93;;;3.97;;
61642;SDS011;47551;52.506;4.678;2023-12-20T01:55:02;15.52;;;3.67;;
61642;SDS011;47551;52.506;4.678;2023-12-20T01:55:24;14.45;;;3.72;;
61642;SDS011;47551;52.506;4.678;2023-12-20T01:55:45;16.20;;;3.87;;
61642;SDS011;47551;52.506;4.678;2023-12-20T01:56:05;15.25;;;3.42;;
61642;SDS011;47551;52.506;4.678;2023-12-20T01:56:26;14.77;;;3.27;;
61642;SDS011;47551;52.506;4.678;2023-12-20T01:56:48;16.48;;;3.65;;
61642;SDS011;47551;52.506;4.678;2023-12-20T01:57:09;16.45;;;3.60;;
61642;SDS011;47551;52.506;4.678;2023-12-20T01:57:30;17.40;;;3.45;;
61642;SDS011;47551;52.506;4.678;2023-12-20T01:57:50;16.47;;;3.80;;
61642;SDS011;47551;52.506;4.678;2023-12-20T01:58:11;13.52;;;3.35;;
61642;SDS011;47551;52.506;4.678;2023-12-20T01:58:35;13.93;;;2.97;;
61642;SDS011;47551;52.506;4.678;2023-12-20T01:58:57;14.70;;;3.33;;
61642;SDS011;47551;52.506;4.678;2023-12-20T01:59:18;15.17;;;3.90;;
61642;SDS011;47551;52.506;4.678;2023-12-20T01:59:42;16.38;;;3.85;;
61642;SDS011;47551;52.506;4.678;2023-12-20T02:00:04;16.52;;;3.97;;
61642;SDS011;47551;52.506;4.678;2023-12-20T02:00:24;14.88;;;3.70;;
61642;SDS011;47551;52.506;4.678;2023-12-20T02:00:46;16.13;;;3.70;;
61642;SDS011;47551;52.506;4.678;2023-12-20T02:01:07;19.52;;;4.03;;
61642;SDS011;47551;52.506;4.678;2023-12-20T02:01:27;16.53;;;3.43;;
61642;SDS011;47551;52.506;4.678;2023-12-20T02:01:48;15.88;;;3.35;;
61642;SDS011;47551;52.506;4.678;2023-12-20T02:02:08;16.43;;;4.10;;
61642;SDS011;47551;52.506;4.678;2023-12-20T02:02:28;17.33;;;4.10;;